Date,TemperatureHighF,TemperatureAvgF,TemperatureLowF,DewpointHighF,DewpointAvgF,DewpointLowF,HumidityHigh,HumidityAvg,HumidityLow,PressureMaxIn,PressureMinIn,WindSpeedMaxMPH,WindSpeedAvgMPH,GustSpeedMaxMPH,PrecipitationSumIn
2013-9-1,85,75,70,73,71,68,96,88,64,29.82,29.72,3,0,11,0.00
2013-9-2,77,74,71,75,72,70,97,94,87,29.81,29.65,1,0,10,0.15
2013-9-3,82,73,61,71,67,57,98,83,59,29.75,29.63,2,0,9,0.00
2013-9-4,84,69,56,60,57,54,96,69,38,29.86,29.74,2,0,7,0.00
2013-9-5,72,62,50,62,52,42,96,72,36,30.09,29.80,2,0,10,0.06
2013-9-6,73,57,43,48,43,35,94,64,28,30.19,30.03,1,0,5,0.00
2013-9-7,83,64,46,60,51,44,94,68,31,30.03,29.79,1,0,6,0.01
2013-9-8,78,64,49,61,52,40,93,68,35,30.04,29.69,3,1,16,0.00
2013-9-9,75,57,42,50,44,39,92,65,28,30.18,30.04,2,0,11,0.00
2013-9-10,74,65,53,70,61,49,97,88,81,30.09,29.96,3,0,11,0.11
2013-9-11,97,81,67,76,71,65,98,75,43,30.00,29.87,3,0,13,0.01
2013-9-12,87,77,67,74,69,65,97,78,57,29.89,29.60,4,1,17,1.43
2013-9-13,81,68,58,71,64,54,99,89,58,29.70,29.51,3,0,14,0.20
2013-9-14,69,60,51,56,53,49,93,77,55,30.00,29.70,1,0,11,0.00
2013-9-15,75,59,46,54,49,45,98,74,38,30.10,29.99,0,0,6,0.00
2013-9-16,70,57,47,56,50,37,92,78,56,30.20,29.95,2,0,13,0.01
2013-9-17,68,51,38,47,39,35,92,67,35,30.38,30.21,2,0,10,0.00
2013-9-18,77,57,40,50,44,39,98,69,27,30.27,30.07,0,0,3,0.00
2013-9-19,82,62,46,57,51,44,97,71,29,30.07,29.97,0,0,5,0.00
2013-9-20,84,64,48,60,53,47,99,73,35,30.03,29.93,0,0,7,0.00
2013-9-21,74,63,52,65,58,51,99,85,62,29.96,29.66,4,1,16,0.00
2013-9-22,75,64,50,66,57,45,98,79,47,29.78,29.53,5,1,18,0.76
2013-9-23,66,53,44,46,42,39,86,68,43,29.95,29.78,2,0,18,0.00
2013-9-24,70,53,40,46,42,38,95,68,38,29.93,29.76,1,0,10,0.00
2013-9-25,71,55,44,54,47,42,94,76,48,29.92,29.82,0,0,6,0.00
2013-9-26,71,58,52,51,49,45,90,72,42,30.07,29.92,0,0,5,0.00
2013-9-27,66,58,50,55,51,49,96,79,61,30.20,30.07,1,0,5,0.00
2013-9-28,78,59,49,57,51,48,97,78,41,30.27,30.20,0,0,6,0.00
2013-9-29,72,54,46,54,46,-100,99,80,31,30.21,30.07,0,0,3,0.00
2013-9-30,75,53,46,53,40,-100,98,76,41,30.07,29.91,0,0,2,0.01